Time;durP1;ratioP1;P1;durP2;ratioP2;P2;SDS_P1;SDS_P2;PMS_P1;PMS_P2;Temp;Humidity;BMP_temperature;BMP_pressure;BME280_temperature;BME280_humidity;BME280_pressure;Samples;Min_cycle;Max_cycle;Signal;HPM_P1;HPM_P2
2021/09/24 00:02:13;;;;;;;;;18.25;15.75;;;;;22.77;49.08;101183.25;6219756;22;56499;-73
2021/09/24 00:04:39;;;;;;;;;18.25;18.25;;;;;22.75;49.38;101187.72;6195821;22;45460;-73
2021/09/24 00:07:04;;;;;;;;;16.75;15.50;;;;;22.68;49.33;101181.78;6194449;22;61661;-73
2021/09/24 00:09:30;;;;;;;;;18.75;18.25;;;;;22.74;49.40;101186.88;6195820;22;45206;-73
2021/09/24 00:11:55;;;;;;;;;20.00;16.25;;;;;22.77;49.18;101200.09;6169347;22;59136;-74
2021/09/24 00:14:20;;;;;;;;;19.75;18.25;;;;;22.74;49.44;101188.66;6194497;22;54633;-73
2021/09/24 00:16:46;;;;;;;;;19.75;16.75;;;;;22.76;49.26;101184.13;6195327;22;45464;-73
2021/09/24 00:19:11;;;;;;;;;20.75;17.25;;;;;22.72;48.94;101175.41;6247501;22;45352;-73
2021/09/24 00:21:37;;;;;;;;;22.00;19.75;;;;;22.77;49.82;101177.94;6247669;22;45363;-73
2021/09/24 00:24:02;;;;;;;;;19.00;16.25;;;;;22.72;49.28;101171.88;6247778;22;45482;-73
2021/09/24 00:26:28;;;;;;;;;20.50;17.25;;;;;22.77;49.43;101175.25;6220657;22;46033;-73
2021/09/24 00:28:53;;;;;;;;;20.25;17.50;;;;;22.71;49.40;101179.00;6195527;22;45318;-73
2021/09/24 00:31:19;;;;;;;;;19.50;16.75;;;;;22.73;49.45;101179.81;6195662;22;45182;-73
2021/09/24 00:33:44;;;;;;;;;19.75;17.75;;;;;22.66;49.22;101172.94;6194289;22;52802;-73
2021/09/24 00:36:10;;;;;;;;;17.75;17.75;;;;;22.71;49.24;101175.47;6194469;22;49003;-73
2021/09/24 00:38:38;;;;;;;;;19.75;18.00;;;;;22.71;49.54;101172.81;6220754;22;45189;-73
2021/09/24 00:41:05;;;;;;;;;17.75;17.75;;;;;22.65;49.96;101167.69;6247407;22;45256;-73
2021/09/24 00:43:31;;;;;;;;;16.25;15.00;;;;;22.66;49.71;101158.78;6195728;22;45408;-73
2021/09/24 00:45:56;;;;;;;;;18.75;16.25;;;;;22.69;48.93;101161.34;6195433;22;45374;-73
2021/09/24 00:48:21;;;;;;;;;15.00;14.50;;;;;22.66;49.72;101161.44;6220842;22;45333;-73
2021/09/24 00:50:47;;;;;;;;;15.75;15.50;;;;;22.66;49.52;101162.31;6195348;22;45918;-73
2021/09/24 00:53:12;;;;;;;;;20.00;18.25;;;;;22.62;49.71;101151.84;6220872;22;45253;-73
2021/09/24 00:55:38;;;;;;;;;19.75;19.25;;;;;22.57;49.56;101136.88;6220521;22;45315;-73
2021/09/24 00:58:03;;;;;;;;;23.00;20.75;;;;;22.65;49.85;101154.38;6220652;22;45171;-73
2021/09/24 01:00:29;;;;;;;;;20.25;16.50;;;;;22.62;49.74;101146.50;6195084;22;45281;-73
2021/09/24 01:02:54;;;;;;;;;23.75;19.75;;;;;22.61;49.91;101145.66;6219852;22;53228;-73
2021/09/24 01:05:20;;;;;;;;;22.50;17.50;;;;;22.62;49.08;101150.03;6219531;22;54479;-73
2021/09/24 01:07:45;;;;;;;;;16.00;16.00;;;;;22.60;49.85;101151.91;6220376;22;45249;-73
2021/09/24 01:10:12;;;;;;;;;18.75;17.00;;;;;22.58;49.62;101143.94;6247487;22;45484;-73
2021/09/24 01:12:37;;;;;;;;;20.25;18.00;;;;;22.49;49.46;101128.28;6247677;22;45178;-73
2021/09/24 01:15:05;;;;;;;;;17.50;14.25;;;;;22.57;49.57;101144.00;6220473;22;46421;-73
2021/09/24 01:17:31;;;;;;;;;17.75;17.75;;;;;22.56;49.60;101143.13;6195222;22;45452;-73
2021/09/24 01:19:56;;;;;;;;;19.00;15.50;;;;;22.55;49.71;101133.41;6219968;22;45431;-73
2021/09/24 01:22:21;;;;;;;;;13.25;13.25;;;;;22.53;50.07;101139.72;6218935;22;60606;-73
2021/09/24 01:24:47;;;;;;;;;14.25;13.25;;;;;22.52;50.25;101136.19;6195160;22;46061;-73
2021/09/24 01:27:12;;;;;;;;;13.50;12.00;;;;;22.53;49.68;101137.91;6195375;22;45185;-73
2021/09/24 01:29:38;;;;;;;;;16.50;14.00;;;;;22.52;50.06;101137.97;6169434;22;48326;-73
2021/09/24 01:32:03;;;;;;;;;17.00;16.00;;;;;22.52;50.00;101137.97;6194809;22;45412;-73
2021/09/24 01:34:29;;;;;;;;;14.50;14.00;;;;;22.49;49.98;101132.75;6194377;22;46328;-73
2021/09/24 01:36:54;;;;;;;;;15.00;14.75;;;;;22.43;49.91;101130.31;6193815;22;47273;-73
2021/09/24 01:39:19;;;;;;;;;15.25;14.75;;;;;22.42;50.62;101131.22;6194051;22;45160;-73
2021/09/24 01:41:47;;;;;;;;;15.75;14.00;;;;;22.39;50.73;101136.63;6219948;22;45156;-73
2021/09/24 01:44:12;;;;;;;;;18.25;14.50;;;;;22.37;51.02;101128.72;6194541;22;47415;-73
2021/09/24 01:46:38;;;;;;;;;13.25;12.00;;;;;22.35;50.59;101125.25;6194387;22;45407;-74
2021/09/24 01:49:04;;;;;;;;;13.00;12.00;;;;;22.36;50.65;101131.44;6195032;22;45387;-73
2021/09/24 01:51:29;;;;;;;;;12.00;12.00;;;;;22.38;51.05;101127.78;6194120;22;45522;-73
2021/09/24 01:53:54;;;;;;;;;13.50;11.50;;;;;22.34;50.46;101117.31;6247953;22;45304;-73
2021/09/24 01:56:23;;;;;;;;;12.25;11.00;;;;;22.35;50.26;101130.56;6247818;22;58067;-74
2021/09/24 01:58:48;;;;;;;;;14.75;12.50;;;;;22.36;51.09;101134.97;6221654;22;45455;-74
2021/09/24 02:01:14;;;;;;;;;14.00;12.25;;;;;22.36;50.77;101136.75;6248275;22;50850;-73
2021/09/24 02:03:39;;;;;;;;;11.75;10.00;;;;;22.39;50.59;101136.63;6220607;22;64333;-74
2021/09/24 02:06:05;;;;;;;;;10.25;10.25;;;;;22.40;50.96;101146.34;6247900;22;55919;-74
2021/09/24 02:08:30;;;;;;;;;10.25;9.25;;;;;22.38;50.92;101148.19;6221240;22;45170;-74
2021/09/24 02:10:56;;;;;;;;;14.50;11.75;;;;;22.35;50.62;101143.88;6195794;22;45528;-74
2021/09/24 02:13:21;;;;;;;;;11.00;10.75;;;;;22.25;51.13;101124.69;6220900;22;59267;-73
2021/09/24 02:15:46;;;;;;;;;13.00;9.00;;;;;22.35;50.89;101140.34;6220954;22;60351;-73
2021/09/24 02:18:12;;;;;;;;;11.00;10.00;;;;;22.36;50.52;101136.75;6221618;22;45624;-74
2021/09/24 02:20:37;;;;;;;;;12.50;11.00;;;;;22.35;51.34;101138.53;6220847;22;45380;-73
2021/09/24 02:23:03;;;;;;;;;17.75;13.00;;;;;22.37;50.86;101136.69;6221537;22;45273;-73
2021/09/24 02:25:28;;;;;;;;;13.50;10.75;;;;;22.35;51.07;101132.34;6196346;22;45367;-73
2021/09/24 02:27:54;;;;;;;;;11.75;8.50;;;;;22.35;50.95;101137.69;6196426;22;45315;-73
2021/09/24 02:30:19;;;;;;;;;13.25;12.25;;;;;22.33;50.84;101135.06;6170659;22;45284;-73
2021/09/24 02:32:44;;;;;;;;;10.00;8.75;;;;;22.35;51.24;101135.88;6195964;22;45336;-73
2021/09/24 02:35:10;;;;;;;;;14.50;10.25;;;;;22.29;51.54;101121.00;6169993;22;53809;-73
2021/09/24 02:37:35;;;;;;;;;11.25;10.75;;;;;22.31;51.08;101118.28;6221306;22;45440;-73
2021/09/24 02:40:01;;;;;;;;;11.75;10.50;;;;;22.35;51.30;101129.69;6220910;22;45180;-73
2021/09/24 02:42:26;;;;;;;;;10.75;10.50;;;;;22.29;51.38;101130.75;6220633;22;60727;-73
2021/09/24 02:44:51;;;;;;;;;12.00;12.00;;;;;22.31;51.32;101128.91;6220954;22;52297;-73
2021/09/24 02:47:17;;;;;;;;;13.00;11.75;;;;;22.29;51.33;101125.44;6221282;22;45366;-73
2021/09/24 02:49:44;;;;;;;;;11.75;9.75;;;;;22.27;51.45;101124.63;6195616;22;45417;-73
2021/09/24 02:52:10;;;;;;;;;16.50;11.75;;;;;22.30;51.27;101129.84;6247824;22;45363;-73
2021/09/24 02:54:35;;;;;;;;;11.00;9.75;;;;;22.27;51.20;101124.63;6221319;22;45187;-73
2021/09/24 02:57:01;;;;;;;;;11.25;11.00;;;;;22.27;51.68;101125.50;6248860;22;45126;-73
2021/09/24 02:59:26;;;;;;;;;8.75;8.75;;;;;22.28;51.29;101124.56;6221382;22;45258;-73
2021/09/24 03:01:54;;;;;;;;;10.25;9.25;;;;;22.25;51.68;101121.16;6247742;22;56781;-73
2021/09/24 03:04:20;;;;;;;;;9.50;9.00;;;;;22.32;51.48;101132.44;6247543;22;45363;-73
2021/09/24 03:06:45;;;;;;;;;10.00;10.00;;;;;22.29;50.86;101131.63;6248254;22;45248;-72
2021/09/24 03:09:11;;;;;;;;;10.00;8.00;;;;;22.31;51.44;101131.56;6220733;22;58908;-72
2021/09/24 03:11:36;;;;;;;;;11.50;10.50;;;;;22.29;51.33;101125.44;6195541;22;53387;-72
2021/09/24 03:14:01;;;;;;;;;13.00;12.00;;;;;22.34;51.40;101122.66;6247620;22;61270;-72
2021/09/24 03:16:27;;;;;;;;;8.75;7.75;;;;;22.33;51.18;101121.78;6195831;22;45237;-72
2021/09/24 03:18:52;;;;;;;;;11.25;10.00;;;;;22.31;51.12;101112.94;6248222;22;45308;-72
2021/09/24 03:21:18;;;;;;;;;10.25;10.25;;;;;22.29;51.33;101113.00;6246010;22;48194;-72
2021/09/24 03:23:43;;;;;;;;;9.25;9.00;;;;;22.25;51.69;101113.19;6195396;22;45975;-72
2021/09/24 03:26:09;;;;;;;;;11.75;10.00;;;;;22.31;51.45;101117.41;6196161;22;45217;-72
2021/09/24 03:28:34;;;;;;;;;10.00;9.75;;;;;22.25;51.35;101103.41;6220637;22;45111;-73
2021/09/24 03:30:59;;;;;;;;;5.50;5.50;;;;;22.22;51.75;101092.00;6169718;22;65718;-73
2021/09/24 03:33:25;;;;;;;;;11.25;8.00;;;;;22.28;51.76;101113.06;6169927;22;51896;-72
2021/09/24 03:35:50;;;;;;;;;10.25;9.00;;;;;22.26;51.92;101109.59;6170228;22;47991;-73
2021/09/24 03:38:16;;;;;;;;;11.00;9.75;;;;;22.26;51.97;101107.81;6194238;22;61504;-73
2021/09/24 03:40:41;;;;;;;;;5.25;3.75;;;;;22.24;51.55;101096.34;6195380;22;46879;-72
2021/09/24 03:43:08;;;;;;;;;9.25;9.25;;;;;22.27;52.10;101106.00;6220845;22;45280;-72
2021/09/24 03:45:33;;;;;;;;;7.75;7.50;;;;;22.25;51.80;101111.38;6248425;22;45874;-72
2021/09/24 03:47:59;;;;;;;;;8.25;8.00;;;;;22.24;52.07;101103.44;6247173;22;45255;-73
2021/09/24 03:50:24;;;;;;;;;6.25;6.25;;;;;22.26;52.01;101104.28;6220343;22;56451;-73
2021/09/24 03:52:53;;;;;;;;;10.25;9.00;;;;;22.28;51.77;101099.78;6195300;22;45280;-72
2021/09/24 03:55:19;;;;;;;;;8.25;8.25;;;;;22.24;51.76;101093.69;6220678;22;45332;-73
2021/09/24 03:57:44;;;;;;;;;7.00;6.50;;;;;22.30;51.80;101105.91;6248080;22;45122;-73
2021/09/24 04:00:10;;;;;;;;;7.75;7.00;;;;;22.30;51.89;101097.91;6220449;22;47471;-73
2021/09/24 04:02:36;;;;;;;;;9.50;9.50;;;;;22.27;52.10;101101.56;6195197;22;45206;-73
2021/09/24 04:05:01;;;;;;;;;11.00;9.00;;;;;22.23;52.39;101094.59;6195698;22;45221;-73
2021/09/24 04:07:27;;;;;;;;;9.50;8.25;;;;;22.24;51.89;101095.47;6248209;22;45246;-73
2021/09/24 04:09:52;;;;;;;;;6.00;6.00;;;;;22.26;51.86;101098.97;6219938;22;58465;-73
2021/09/24 04:12:17;;;;;;;;;5.75;5.50;;;;;22.20;52.47;101093.84;6220916;22;45310;-73
2021/09/24 04:14:43;;;;;;;;;9.50;7.00;;;;;22.20;52.35;101093.84;6247868;22;48061;-73
2021/09/24 04:17:08;;;;;;;;;8.00;8.00;;;;;22.17;51.96;101093.94;6220346;22;45402;-73
2021/09/24 04:19:34;;;;;;;;;9.50;7.00;;;;;22.15;52.29;101096.66;6220884;22;46144;-73
2021/09/24 04:21:59;;;;;;;;;6.50;6.25;;;;;22.19;52.61;101097.41;6194737;22;45688;-73
2021/09/24 04:24:25;;;;;;;;;9.25;8.50;;;;;22.19;52.58;101105.41;6248222;22;45802;-73
2021/09/24 04:26:50;;;;;;;;;9.75;6.75;;;;;22.18;52.06;101096.56;6220346;22;45411;-73
2021/09/24 04:29:15;;;;;;;;;6.25;6.25;;;;;22.17;52.41;101093.94;6220874;22;45515;-73
2021/09/24 04:31:41;;;;;;;;;6.50;6.50;;;;;22.17;52.38;101093.94;6169750;22;45408;-73
2021/09/24 04:34:08;;;;;;;;;6.25;6.00;;;;;22.17;52.27;101089.50;6195790;22;45342;-73
2021/09/24 04:36:34;;;;;;;;;7.75;6.25;;;;;22.16;52.61;101081.59;6196197;22;45523;-73
2021/09/24 04:39:02;;;;;;;;;7.00;7.00;;;;;22.18;52.84;101090.38;6220226;22;45277;-73
2021/09/24 04:41:27;;;;;;;;;9.50;8.00;;;;;22.18;51.92;101093.03;6221010;22;45244;-72
2021/09/24 04:43:52;;;;;;;;;8.50;7.25;;;;;22.19;52.63;101097.41;6221060;22;45195;-74
2021/09/24 04:46:18;;;;;;;;;7.50;7.50;;;;;22.21;53.02;101101.75;6169820;22;55217;-72
2021/09/24 04:48:43;;;;;;;;;7.25;6.75;;;;;22.23;52.75;101101.69;6247347;22;54412;-73
2021/09/24 04:51:09;;;;;;;;;7.00;7.00;;;;;22.22;52.83;101100.84;6220209;22;45352;-74
2021/09/24 04:53:34;;;;;;;;;8.75;8.00;;;;;22.24;52.49;101106.09;6220528;22;45809;-72
2021/09/24 04:55:59;;;;;;;;;9.75;6.00;;;;;22.23;52.53;101107.88;6221697;22;45208;-71
2021/09/24 04:58:25;;;;;;;;;7.25;7.25;;;;;22.25;52.70;101105.19;6247528;22;46271;-71
2021/09/24 05:00:50;;;;;;;;;7.25;7.25;;;;;22.29;53.39;101098.84;6246724;22;58905;-70
2021/09/24 05:03:16;;;;;;;;;8.25;8.25;;;;;22.34;52.91;101098.72;6195360;22;45313;-73
2021/09/24 05:05:41;;;;;;;;;14.75;11.00;;;;;22.41;53.11;101110.84;6194386;22;45408;-72
2021/09/24 05:08:07;;;;;;;;;8.75;8.00;;;;;22.44;53.63;101094.81;6219688;22;53501;-71
2021/09/24 05:10:32;;;;;;;;;11.25;7.00;;;;;22.48;53.29;101097.28;6245164;22;45307;-72
2021/09/24 05:12:57;;;;;;;;;9.00;7.50;;;;;22.50;52.41;101095.47;6246997;22;53668;-72
2021/09/24 05:15:23;;;;;;;;;8.50;7.00;;;;;22.51;53.43;101091.88;6220181;22;46748;-72
2021/09/24 05:17:48;;;;;;;;;7.50;7.50;;;;;22.58;52.79;101090.72;6194426;22;47934;-71
2021/09/24 05:20:14;;;;;;;;;6.00;6.00;;;;;22.63;52.86;101087.06;6193665;22;60637;-72
2021/09/24 05:22:39;;;;;;;;;7.00;7.00;;;;;22.72;52.94;101092.06;6194162;22;51475;-71
2021/09/24 05:25:05;;;;;;;;;9.25;7.25;;;;;22.76;52.43;101093.66;6219774;22;45174;-72
2021/09/24 05:27:31;;;;;;;;;8.25;6.75;;;;;22.83;52.49;101100.50;6194671;22;47099;-72
2021/09/24 05:29:56;;;;;;;;;9.75;9.00;;;;;22.88;52.87;101097.72;6248748;22;45204;-73
2021/09/24 05:32:22;;;;;;;;;10.25;10.25;;;;;22.87;52.54;101099.53;6170917;22;45206;-71
2021/09/24 05:34:47;;;;;;;;;8.25;8.00;;;;;22.83;52.93;101097.84;6195980;22;48619;-72
2021/09/24 05:37:12;;;;;;;;;9.00;8.00;;;;;22.76;53.74;101096.31;6246474;22;47543;-74
2021/09/24 05:39:38;;;;;;;;;8.50;8.50;;;;;22.77;53.01;101090.09;6221196;22;45306;-72
2021/09/24 05:42:03;;;;;;;;;9.75;9.00;;;;;22.76;53.10;101086.59;6221891;22;45384;-73
2021/09/24 05:44:29;;;;;;;;;10.00;8.50;;;;;22.71;53.78;101079.66;6196483;22;45276;-72
2021/09/24 05:46:54;;;;;;;;;8.25;7.25;;;;;22.68;54.35;101085.97;6220939;22;51869;-72
2021/09/24 05:49:20;;;;;;;;;8.75;8.50;;;;;22.66;54.68;101081.63;6220679;22;58282;-72
2021/09/24 05:51:45;;;;;;;;;9.50;8.75;;;;;22.65;54.49;101085.19;6195463;22;56609;-72
2021/09/24 05:54:11;;;;;;;;;12.50;9.25;;;;;22.57;54.38;101077.50;6194956;22;64172;-73
2021/09/24 05:56:36;;;;;;;;;9.25;8.50;;;;;22.52;54.06;101080.31;6196191;22;45359;-75
2021/09/24 05:59:01;;;;;;;;;8.00;7.00;;;;;22.43;54.70;101075.31;6195867;22;45185;-72
2021/09/24 06:01:27;;;;;;;;;12.25;9.25;;;;;22.40;54.67;101085.19;6221095;22;45507;-74
2021/09/24 06:03:54;;;;;;;;;8.00;8.00;;;;;22.41;54.95;101090.44;6170592;22;45432;-74
2021/09/24 06:06:20;;;;;;;;;13.75;10.75;;;;;22.41;55.23;101087.78;6195665;22;47271;-73
2021/09/24 06:08:49;;;;;;;;;14.25;12.25;;;;;22.49;54.87;101091.06;6221414;22;45215;-74
2021/09/24 06:11:16;;;;;;;;;10.50;8.25;;;;;22.53;54.87;101098.03;6222296;22;45284;-74
2021/09/24 06:13:41;;;;;;;;;12.50;8.50;;;;;22.52;54.84;101096.28;6248384;22;45247;-74
2021/09/24 06:16:06;;;;;;;;;10.25;9.50;;;;;22.54;54.61;101090.91;6220247;22;62975;-74
2021/09/24 06:18:33;;;;;;;;;10.50;9.50;;;;;22.53;54.72;101089.16;6248415;22;45326;-74
2021/09/24 06:20:59;;;;;;;;;8.50;8.50;;;;;22.59;54.16;101091.63;6221894;22;45310;-74
2021/09/24 06:23:24;;;;;;;;;11.00;9.00;;;;;22.55;54.17;101082.00;6248583;22;45493;-74
2021/09/24 06:25:49;;;;;;;;;13.75;10.00;;;;;22.53;54.15;101082.06;6195772;22;47137;-74
2021/09/24 06:28:15;;;;;;;;;12.75;10.50;;;;;22.55;53.89;101082.88;6248375;22;45095;-74
2021/09/24 06:30:40;;;;;;;;;12.25;11.00;;;;;22.58;53.63;101088.06;6248048;22;52435;-74
2021/09/24 06:33:06;;;;;;;;;10.50;9.25;;;;;22.60;54.22;101092.50;6248058;22;45055;-74
2021/09/24 06:35:31;;;;;;;;;11.00;9.25;;;;;22.58;53.67;101089.84;6247959;22;46004;-72
2021/09/24 06:37:57;;;;;;;;;9.75;7.75;;;;;22.56;54.30;101083.72;6246214;22;52489;-73
2021/09/24 06:40:22;;;;;;;;;10.50;9.25;;;;;22.66;55.62;101090.47;6220274;22;45370;-72
2021/09/24 06:42:47;;;;;;;;;10.75;10.00;;;;;22.74;54.55;101096.38;6220056;22;45161;-72
2021/09/24 06:45:16;;;;;;;;;9.25;8.25;;;;;22.82;54.52;101098.78;6240592;22;45601;-74
2021/09/24 06:47:42;;;;;;;;;8.00;7.00;;;;;22.84;54.35;101097.81;6184010;22;45848;-74
2021/09/24 06:50:08;;;;;;;;;14.00;9.25;;;;;22.91;53.78;101092.28;6194258;22;45502;-74
2021/09/24 06:52:33;;;;;;;;;8.00;8.00;;;;;22.92;53.67;101088.69;6247225;22;45490;-74
2021/09/24 06:54:59;;;;;;;;;10.00;8.00;;;;;22.98;53.58;101094.69;6220706;22;59271;-74
2021/09/24 06:57:25;;;;;;;;;8.50;6.75;;;;;22.99;52.95;101098.22;6220506;22;45234;-74
2021/09/24 06:59:50;;;;;;;;;9.00;6.50;;;;;22.98;53.41;101093.81;6248353;22;45228;-74
2021/09/24 07:02:15;;;;;;;;;9.25;9.25;;;;;22.97;52.55;101098.25;6169963;22;45217;-75
2021/09/24 07:04:41;;;;;;;;;9.00;7.75;;;;;22.97;52.40;101098.25;6195199;22;45120;-74
2021/09/24 07:07:06;;;;;;;;;9.50;8.50;;;;;22.90;52.88;101095.88;6220331;22;45184;-74
2021/09/24 07:09:32;;;;;;;;;8.50;8.00;;;;;22.83;53.29;101092.53;6195673;22;45361;-74
2021/09/24 07:11:57;;;;;;;;;10.25;10.00;;;;;22.80;52.68;101095.31;6220681;22;45486;-74
2021/09/24 07:14:23;;;;;;;;;10.50;9.50;;;;;22.73;53.01;101083.13;6196013;22;45102;-74
2021/09/24 07:16:48;;;;;;;;;9.00;9.00;;;;;22.72;52.85;101092.06;6246773;22;45435;-74
2021/09/24 07:19:14;;;;;;;;;7.00;7.00;;;;;22.68;52.78;101085.97;6221322;22;45293;-74
2021/09/24 07:21:39;;;;;;;;;9.00;8.25;;;;;22.72;52.61;101097.38;6194372;22;45462;-74
2021/09/24 07:24:05;;;;;;;;;8.50;7.25;;;;;22.71;52.41;101096.50;6195710;22;45356;-74
2021/09/24 07:26:31;;;;;;;;;8.25;7.75;;;;;22.73;52.14;101092.00;6195106;22;47199;-74
2021/09/24 07:28:56;;;;;;;;;8.00;7.50;;;;;22.75;52.82;101097.25;6220815;22;45252;-73
2021/09/24 07:31:22;;;;;;;;;10.25;8.00;;;;;22.78;52.61;101099.81;6195091;22;45351;-74
2021/09/24 07:33:48;;;;;;;;;8.75;8.00;;;;;22.72;52.57;101082.28;6220519;22;45404;-74
2021/09/24 07:36:16;;;;;;;;;12.50;8.00;;;;;22.82;52.67;101096.13;6247499;22;45264;-74
2021/09/24 07:38:41;;;;;;;;;9.75;9.25;;;;;22.78;52.11;101083.88;6195669;22;45170;-74
2021/09/24 07:41:07;;;;;;;;;10.00;8.00;;;;;22.83;52.33;101087.22;6247760;22;45180;-74
2021/09/24 07:43:32;;;;;;;;;10.25;8.75;;;;;22.84;52.04;101087.19;6247613;22;45248;-75
2021/09/24 07:45:58;;;;;;;;;9.50;8.25;;;;;22.84;52.42;101071.22;6195206;22;45957;-74
2021/09/24 07:48:23;;;;;;;;;13.00;9.00;;;;;22.93;51.87;101085.09;6169923;22;45801;-74
2021/09/24 07:50:48;;;;;;;;;11.00;10.25;;;;;22.95;51.90;101083.28;6219448;22;45708;-74
2021/09/24 07:53:14;;;;;;;;;11.00;10.25;;;;;23.00;51.75;101087.50;6220983;22;45399;-74
2021/09/24 07:55:39;;;;;;;;;9.75;8.50;;;;;22.99;51.75;101084.91;6194870;22;57158;-74
2021/09/24 07:58:05;;;;;;;;;9.75;9.25;;;;;22.99;52.21;101082.22;6195100;22;45454;-73
2021/09/24 08:00:30;;;;;;;;;14.25;12.00;;;;;23.03;51.88;101090.06;6195052;22;45240;-74
2021/09/24 08:02:56;;;;;;;;;13.00;9.50;;;;;23.04;51.83;101089.13;6169672;22;48021;-74
2021/09/24 08:05:22;;;;;;;;;10.75;9.00;;;;;23.07;51.76;101091.69;6195408;22;45253;-73
2021/09/24 08:07:47;;;;;;;;;15.25;12.50;;;;;23.17;52.87;101089.53;6195611;22;45516;-74
2021/09/24 08:10:13;;;;;;;;;11.00;10.75;;;;;23.28;52.89;101105.09;6195329;22;45335;-74
2021/09/24 08:12:38;;;;;;;;;9.25;9.00;;;;;23.31;51.64;101099.69;6247358;22;46038;-74
2021/09/24 08:15:05;;;;;;;;;11.00;10.00;;;;;23.29;52.06;101098.88;6195657;22;45244;-73
2021/09/24 08:17:31;;;;;;;;;11.00;9.75;;;;;23.29;51.46;101105.06;6195054;22;45328;-74
2021/09/24 08:19:56;;;;;;;;;14.25;10.00;;;;;23.29;51.68;101112.19;6194573;22;45137;-74
2021/09/24 08:22:22;;;;;;;;;13.50;12.00;;;;;23.27;51.67;101100.72;6220200;22;47183;-74
2021/09/24 08:24:47;;;;;;;;;12.00;11.50;;;;;23.26;51.12;101106.97;6194518;22;45582;-74
2021/09/24 08:27:13;;;;;;;;;15.50;11.50;;;;;23.20;50.74;101109.88;6220892;22;45203;-74
2021/09/24 08:29:38;;;;;;;;;12.50;9.50;;;;;23.11;51.18;101111.94;6195268;22;45446;-73
2021/09/24 08:32:04;;;;;;;;;11.00;10.50;;;;;23.10;51.37;101110.19;6193494;22;61740;-73
2021/09/24 08:34:30;;;;;;;;;12.00;11.25;;;;;23.08;51.41;101109.38;6194689;22;45316;-73
2021/09/24 08:36:55;;;;;;;;;12.75;11.50;;;;;23.09;51.09;101105.78;6194235;22;45266;-74
2021/09/24 08:39:20;;;;;;;;;12.00;9.00;;;;;23.13;51.50;101114.56;6194693;22;45767;-74
2021/09/24 08:41:46;;;;;;;;;12.25;10.75;;;;;23.02;51.25;101095.41;6168885;22;57811;-74
2021/09/24 08:44:11;;;;;;;;;11.00;10.25;;;;;23.09;51.65;101105.78;6220429;22;45284;-73
2021/09/24 08:46:37;;;;;;;;;15.25;13.75;;;;;23.10;51.16;101112.84;6220634;22;45311;-74
2021/09/24 08:49:07;;;;;;;;;11.50;9.75;;;;;23.06;51.49;101105.91;6194150;22;45296;-73
2021/09/24 08:51:34;;;;;;;;;12.00;10.50;;;;;23.03;51.62;101110.50;6194542;22;47185;-73
2021/09/24 08:54:00;;;;;;;;;12.75;11.00;;;;;23.05;51.15;101112.16;6196142;22;45431;-73
2021/09/24 08:56:25;;;;;;;;;14.75;11.00;;;;;23.04;50.96;101114.88;6220066;22;45387;-74
2021/09/24 08:58:50;;;;;;;;;11.75;9.25;;;;;23.02;51.64;101116.72;6194656;22;51073;-74
2021/09/24 09:01:16;;;;;;;;;11.00;10.00;;;;;23.00;51.58;101114.13;6219418;22;52943;-74
2021/09/24 09:03:43;;;;;;;;;12.75;12.75;;;;;23.02;50.96;101116.72;6195319;22;45202;-73
2021/09/24 09:06:09;;;;;;;;;13.00;12.00;;;;;23.02;50.90;101112.28;6196537;22;45407;-74
2021/09/24 09:08:34;;;;;;;;;11.25;9.75;;;;;23.02;51.07;101114.97;6196014;22;45466;-74
2021/09/24 09:11:01;;;;;;;;;13.25;11.50;;;;;23.05;51.63;101117.50;6220829;22;47228;-73
2021/09/24 09:13:31;;;;;;;;;12.50;10.50;;;;;23.06;51.54;101113.03;6218811;22;45557;-74
2021/09/24 09:16:04;;;;;;;;;15.00;11.25;;;;;23.01;51.10;101113.19;6221778;22;45390;-73
2021/09/24 09:18:31;;;;;;;;;15.00;11.75;;;;;23.04;51.50;101112.22;6197437;22;45325;-73
2021/09/24 09:20:57;;;;;;;;;12.25;11.25;;;;;23.05;51.27;101111.31;6219946;22;47396;-73
2021/09/24 09:23:23;;;;;;;;;10.50;9.00;;;;;23.09;51.22;101121.75;6196091;22;45249;-74
2021/09/24 09:25:49;;;;;;;;;10.25;8.25;;;;;23.09;51.34;101116.44;6195474;22;45258;-73
2021/09/24 09:28:36;;;;;;;;;12.00;10.75;;;;;23.06;51.18;101113.91;6196646;22;45169;-73
2021/09/24 09:31:14;;;;;;;;;11.00;8.50;;;;;23.06;51.24;101116.56;6204559;22;45277;-74
2021/09/24 09:33:39;;;;;;;;;14.00;13.00;;;;;23.06;50.85;101111.25;6197462;22;45276;-73
2021/09/24 09:36:04;;;;;;;;;13.25;12.00;;;;;23.05;50.96;101108.63;6170511;22;45752;-74
2021/09/24 09:38:37;;;;;;;;;15.25;12.50;;;;;23.06;50.75;101113.03;6194206;22;53404;-74
2021/09/24 09:41:09;;;;;;;;;15.00;11.00;;;;;23.09;50.61;101118.25;6196722;22;47118;-74
2021/09/24 09:43:37;;;;;;;;;14.00;11.25;;;;;23.05;51.06;101108.63;6221449;22;45209;-74
2021/09/24 09:46:04;;;;;;;;;12.25;9.75;;;;;23.06;50.69;101110.38;6221259;22;45295;-74
2021/09/24 09:48:29;;;;;;;;;12.75;11.00;;;;;23.06;50.95;101110.38;6195042;22;45368;-74
2021/09/24 09:50:55;;;;;;;;;13.00;11.00;;;;;23.04;50.68;101106.91;6220204;22;47780;-73
2021/09/24 09:53:20;;;;;;;;;10.50;9.00;;;;;23.05;50.88;101105.97;6195542;22;45359;-73
2021/09/24 09:55:48;;;;;;;;;12.25;11.00;;;;;23.03;50.67;101103.38;6245613;22;45376;-73
2021/09/24 09:58:13;;;;;;;;;11.75;8.50;;;;;23.04;51.20;101110.44;6248815;22;45332;-73
2021/09/24 10:00:57;;;;;;;;;15.50;15.00;;;;;23.06;51.05;101108.56;6195567;22;47079;-73
2021/09/24 10:03:46;;;;;;;;;12.75;11.25;;;;;23.04;50.83;101094.47;6220233;22;45672;-73
2021/09/24 10:06:22;;;;;;;;;15.00;12.00;;;;;23.05;51.15;101090.88;6196591;22;45357;-73
2021/09/24 10:08:55;;;;;;;;;11.25;11.25;;;;;23.07;50.99;101098.78;6219756;22;45245;-72
2021/09/24 10:11:27;;;;;;;;;14.00;12.75;;;;;23.05;51.34;101088.22;6194582;22;47122;-72
2021/09/24 10:14:05;;;;;;;;;16.00;12.75;;;;;23.04;50.89;101102.44;6197331;22;45335;-72
2021/09/24 10:16:36;;;;;;;;;16.50;14.00;;;;;23.05;51.44;101100.66;6197343;22;45273;-72
2021/09/24 10:19:01;;;;;;;;;20.75;16.25;;;;;23.06;51.09;101100.59;6195796;22;45406;-75
2021/09/24 10:21:27;;;;;;;;;17.25;13.50;;;;;23.12;51.42;101097.72;6195065;22;47847;-73
2021/09/24 10:23:52;;;;;;;;;15.25;10.50;;;;;23.15;51.08;101096.72;6195255;22;45768;-73
2021/09/24 10:26:30;;;;;;;;;10.00;10.00;;;;;23.18;50.43;101098.38;6221446;22;45287;-74
2021/09/24 10:28:58;;;;;;;;;12.00;12.00;;;;;23.18;50.73;101098.38;6248250;22;45391;-73
2021/09/24 10:31:26;;;;;;;;;12.75;12.75;;;;;23.19;50.45;101094.81;6196153;22;45352;-74
2021/09/24 10:33:55;;;;;;;;;14.25;10.50;;;;;23.20;50.44;101093.91;6221543;22;45936;-73
2021/09/24 10:36:33;;;;;;;;;14.75;12.75;;;;;23.24;50.75;101095.50;6196331;22;45213;-73
2021/09/24 10:38:59;;;;;;;;;11.25;10.25;;;;;23.23;50.78;101083.13;6215267;22;45465;-73
2021/09/24 10:41:24;;;;;;;;;13.00;11.75;;;;;23.30;50.00;101089.97;6215501;22;47184;-74
2021/09/24 10:43:51;;;;;;;;;14.25;11.75;;;;;23.31;49.96;101083.69;6191032;22;46163;-74
2021/09/24 10:46:40;;;;;;;;;12.75;10.75;;;;;23.34;49.49;101094.22;6217700;22;45213;-74
2021/09/24 10:49:11;;;;;;;;;10.50;10.25;;;;;23.35;49.83;101085.31;6217563;22;45398;-73
2021/09/24 10:51:37;;;;;;;;;11.00;10.00;;;;;23.33;49.55;101081.84;6217490;22;45249;-73
2021/09/24 10:54:17;;;;;;;;;11.50;11.00;;;;;23.34;50.19;101076.44;6215559;22;45248;-74
2021/09/24 10:56:59;;;;;;;;;17.00;12.00;;;;;23.37;49.90;101080.81;6191310;22;45124;-73
2021/09/24 10:59:29;;;;;;;;;10.50;9.00;;;;;23.38;50.20;101077.22;6218066;22;45569;-73
2021/09/24 11:01:54;;;;;;;;;9.50;9.50;;;;;23.38;49.67;101075.41;6216270;22;45375;-74
2021/09/24 11:04:20;;;;;;;;;11.75;10.25;;;;;23.37;49.95;101068.38;6217362;22;45268;-73
2021/09/24 11:06:50;;;;;;;;;12.25;11.00;;;;;23.38;49.36;101061.25;6190881;22;45288;-73
2021/09/24 11:09:17;;;;;;;;;13.25;11.00;;;;;23.40;49.72;101067.38;6191446;22;45240;-74
2021/09/24 11:11:51;;;;;;;;;9.50;9.50;;;;;23.41;49.44;101067.31;6190582;22;47020;-73